sensor_id;sensor_type;location;lat;lon;timestamp;P1;durP1;ratioP1;P2;durP2;ratioP2
25980;SDS011;13772;52.996;9.124;2023-05-21T07:11:35;8.93;;;5.30;;
25980;SDS011;13772;52.996;9.124;2023-05-21T07:14:02;11.75;;;6.55;;
25980;SDS011;13772;52.996;9.124;2023-05-21T07:16:30;9.02;;;5.93;;
25980;SDS011;13772;52.996;9.124;2023-05-21T07:18:56;9.65;;;6.40;;
25980;SDS011;13772;52.996;9.124;2023-05-21T07:21:21;10.27;;;5.82;;
25980;SDS011;13772;52.996;9.124;2023-05-21T07:23:48;9.35;;;5.82;;
25980;SDS011;13772;52.996;9.124;2023-05-21T07:26:14;8.57;;;6.35;;
25980;SDS011;13772;52.996;9.124;2023-05-21T07:28:40;10.02;;;6.35;;
25980;SDS011;13772;52.996;9.124;2023-05-21T07:31:05;10.25;;;6.82;;
25980;SDS011;13772;52.996;9.124;2023-05-21T07:33:36;10.95;;;7.30;;
25980;SDS011;13772;52.996;9.124;2023-05-21T07:36:02;12.75;;;7.50;;
25980;SDS011;13772;52.996;9.124;2023-05-21T07:38:27;13.70;;;8.60;;
25980;SDS011;13772;52.996;9.124;2023-05-21T07:40:53;11.07;;;7.97;;
25980;SDS011;13772;52.996;9.124;2023-05-21T07:43:19;13.43;;;7.80;;
25980;SDS011;13772;52.996;9.124;2023-05-21T07:45:44;18.10;;;8.10;;
25980;SDS011;13772;52.996;9.124;2023-05-21T07:48:09;12.70;;;7.72;;
25980;SDS011;13772;52.996;9.124;2023-05-21T07:50:43;11.23;;;6.78;;
25980;SDS011;13772;52.996;9.124;2023-05-21T07:53:09;13.52;;;7.50;;
25980;SDS011;13772;52.996;9.124;2023-05-21T07:55:34;13.70;;;7.65;;
25980;SDS011;13772;52.996;9.124;2023-05-21T07:58:00;11.20;;;7.38;;
25980;SDS011;13772;52.996;9.124;2023-05-21T08:00:29;11.93;;;7.18;;
25980;SDS011;13772;52.996;9.124;2023-05-21T08:03:05;13.15;;;7.70;;
25980;SDS011;13772;52.996;9.124;2023-05-21T08:05:31;10.63;;;6.43;;
25980;SDS011;13772;52.996;9.124;2023-05-21T08:07:56;10.40;;;7.45;;
25980;SDS011;13772;52.996;9.124;2023-05-21T08:10:22;14.80;;;7.78;;
25980;SDS011;13772;52.996;9.124;2023-05-21T08:12:49;13.43;;;6.82;;
25980;SDS011;13772;52.996;9.124;2023-05-21T08:15:15;11.25;;;7.10;;
25980;SDS011;13772;52.996;9.124;2023-05-21T08:17:43;9.63;;;6.65;;
25980;SDS011;13772;52.996;9.124;2023-05-21T08:20:09;10.27;;;6.68;;
25980;SDS011;13772;52.996;9.124;2023-05-21T08:22:36;11.85;;;8.05;;
25980;SDS011;13772;52.996;9.124;2023-05-21T08:25:01;10.48;;;6.82;;
25980;SDS011;13772;52.996;9.124;2023-05-21T08:27:27;8.98;;;6.53;;
25980;SDS011;13772;52.996;9.124;2023-05-21T08:29:52;10.88;;;7.43;;
25980;SDS011;13772;52.996;9.124;2023-05-21T08:32:17;12.98;;;7.93;;
25980;SDS011;13772;52.996;9.124;2023-05-21T08:34:42;11.05;;;6.95;;
25980;SDS011;13772;52.996;9.124;2023-05-21T08:37:19;10.43;;;6.85;;
25980;SDS011;13772;52.996;9.124;2023-05-21T08:40:03;11.68;;;7.70;;
25980;SDS011;13772;52.996;9.124;2023-05-21T08:42:44;11.93;;;7.55;;
25980;SDS011;13772;52.996;9.124;2023-05-21T08:45:17;10.73;;;7.57;;
25980;SDS011;13772;52.996;9.124;2023-05-21T08:47:44;15.13;;;8.40;;
25980;SDS011;13772;52.996;9.124;2023-05-21T08:50:14;15.32;;;7.82;;
25980;SDS011;13772;52.996;9.124;2023-05-21T08:52:40;11.07;;;7.18;;
25980;SDS011;13772;52.996;9.124;2023-05-21T08:55:06;15.60;;;8.07;;
25980;SDS011;13772;52.996;9.124;2023-05-21T08:57:32;11.10;;;8.00;;
25980;SDS011;13772;52.996;9.124;2023-05-21T08:59:58;11.25;;;8.10;;
25980;SDS011;13772;52.996;9.124;2023-05-21T09:02:26;12.38;;;7.90;;
25980;SDS011;13772;52.996;9.124;2023-05-21T09:04:54;14.45;;;8.02;;
25980;SDS011;13772;52.996;9.124;2023-05-21T09:07:24;12.80;;;8.30;;
25980;SDS011;13772;52.996;9.124;2023-05-21T09:10:16;9.75;;;7.15;;
25980;SDS011;13772;52.996;9.124;2023-05-21T09:12:42;10.75;;;8.10;;
25980;SDS011;13772;52.996;9.124;2023-05-21T09:15:09;11.73;;;8.35;;
25980;SDS011;13772;52.996;9.124;2023-05-21T09:17:36;11.55;;;8.38;;
25980;SDS011;13772;52.996;9.124;2023-05-21T09:20:24;13.88;;;8.10;;
25980;SDS011;13772;52.996;9.124;2023-05-21T09:22:54;11.93;;;8.18;;
25980;SDS011;13772;52.996;9.124;2023-05-21T09:25:23;10.60;;;7.43;;
25980;SDS011;13772;52.996;9.124;2023-05-21T09:27:48;14.70;;;8.43;;
25980;SDS011;13772;52.996;9.124;2023-05-21T09:30:15;11.70;;;7.72;;
25980;SDS011;13772;52.996;9.124;2023-05-21T09:32:41;10.57;;;8.10;;
25980;SDS011;13772;52.996;9.124;2023-05-21T09:35:07;13.48;;;8.30;;
25980;SDS011;13772;52.996;9.124;2023-05-21T09:37:37;10.80;;;7.53;;
25980;SDS011;13772;52.996;9.124;2023-05-21T09:40:09;13.30;;;8.68;;
25980;SDS011;13772;52.996;9.124;2023-05-21T09:42:37;13.45;;;7.88;;
25980;SDS011;13772;52.996;9.124;2023-05-21T09:45:02;11.00;;;7.60;;
25980;SDS011;13772;52.996;9.124;2023-05-21T09:47:28;12.15;;;7.82;;
25980;SDS011;13772;52.996;9.124;2023-05-21T09:49:58;12.07;;;7.63;;
25980;SDS011;13772;52.996;9.124;2023-05-21T09:54:50;12.60;;;7.68;;
25980;SDS011;13772;52.996;9.124;2023-05-21T09:57:15;9.98;;;7.50;;
25980;SDS011;13772;52.996;9.124;2023-05-21T09:59:41;8.90;;;6.82;;
25980;SDS011;13772;52.996;9.124;2023-05-21T10:02:15;11.50;;;7.95;;
25980;SDS011;13772;52.996;9.124;2023-05-21T10:04:41;14.90;;;8.00;;
25980;SDS011;13772;52.996;9.124;2023-05-21T10:07:07;9.43;;;7.78;;
25980;SDS011;13772;52.996;9.124;2023-05-21T10:09:32;10.63;;;7.68;;
25980;SDS011;13772;52.996;9.124;2023-05-21T10:11:57;12.15;;;7.72;;
25980;SDS011;13772;52.996;9.124;2023-05-21T10:14:24;11.70;;;8.40;;
25980;SDS011;13772;52.996;9.124;2023-05-21T10:16:49;13.88;;;7.78;;
25980;SDS011;13772;52.996;9.124;2023-05-21T10:19:16;10.27;;;8.00;;
25980;SDS011;13772;52.996;9.124;2023-05-21T10:21:42;11.25;;;7.93;;
25980;SDS011;13772;52.996;9.124;2023-05-21T10:24:08;10.23;;;7.82;;
25980;SDS011;13772;52.996;9.124;2023-05-21T10:26:34;12.00;;;7.50;;
25980;SDS011;13772;52.996;9.124;2023-05-21T10:29:00;11.98;;;7.80;;
25980;SDS011;13772;52.996;9.124;2023-05-21T10:31:26;10.13;;;8.73;;
25980;SDS011;13772;52.996;9.124;2023-05-21T10:33:54;11.50;;;8.18;;
25980;SDS011;13772;52.996;9.124;2023-05-21T10:38:46;12.15;;;8.55;;
25980;SDS011;13772;52.996;9.124;2023-05-21T10:41:12;15.07;;;8.68;;
25980;SDS011;13772;52.996;9.124;2023-05-21T10:43:50;11.98;;;8.43;;
25980;SDS011;13772;52.996;9.124;2023-05-21T10:46:22;13.13;;;7.82;;
25980;SDS011;13772;52.996;9.124;2023-05-21T10:51:24;13.68;;;8.40;;
25980;SDS011;13772;52.996;9.124;2023-05-21T10:56:41;11.52;;;8.25;;
25980;SDS011;13772;52.996;9.124;2023-05-21T10:59:14;16.02;;;8.60;;
25980;SDS011;13772;52.996;9.124;2023-05-21T11:01:46;10.20;;;8.15;;
25980;SDS011;13772;52.996;9.124;2023-05-21T11:04:12;9.15;;;7.63;;
25980;SDS011;13772;52.996;9.124;2023-05-21T11:06:39;12.98;;;7.53;;
25980;SDS011;13772;52.996;9.124;2023-05-21T11:09:14;11.15;;;8.00;;
25980;SDS011;13772;52.996;9.124;2023-05-21T11:16:50;10.68;;;7.70;;
25980;SDS011;13772;52.996;9.124;2023-05-21T11:19:15;9.57;;;7.90;;
25980;SDS011;13772;52.996;9.124;2023-05-21T11:21:41;11.57;;;8.02;;
25980;SDS011;13772;52.996;9.124;2023-05-21T11:24:06;11.02;;;8.35;;
25980;SDS011;13772;52.996;9.124;2023-05-21T11:29:13;9.90;;;8.20;;
25980;SDS011;13772;52.996;9.124;2023-05-21T11:31:41;11.38;;;8.57;;
25980;SDS011;13772;52.996;9.124;2023-05-21T11:34:18;10.38;;;8.35;;
25980;SDS011;13772;52.996;9.124;2023-05-21T11:36:46;10.75;;;8.73;;
25980;SDS011;13772;52.996;9.124;2023-05-21T11:39:15;10.38;;;8.45;;
25980;SDS011;13772;52.996;9.124;2023-05-21T11:44:14;10.40;;;7.70;;
25980;SDS011;13772;52.996;9.124;2023-05-21T11:46:39;10.25;;;7.82;;
25980;SDS011;13772;52.996;9.124;2023-05-21T11:49:04;9.60;;;7.70;;
25980;SDS011;13772;52.996;9.124;2023-05-21T11:51:30;12.25;;;8.43;;
25980;SDS011;13772;52.996;9.124;2023-05-21T11:53:56;10.45;;;8.05;;
25980;SDS011;13772;52.996;9.124;2023-05-21T11:56:21;8.40;;;7.20;;
25980;SDS011;13772;52.996;9.124;2023-05-21T11:58:48;8.63;;;7.68;;
25980;SDS011;13772;52.996;9.124;2023-05-21T12:01:25;9.45;;;8.45;;
25980;SDS011;13772;52.996;9.124;2023-05-21T12:03:51;8.65;;;7.50;;
25980;SDS011;13772;52.996;9.124;2023-05-21T12:06:16;10.88;;;8.18;;
25980;SDS011;13772;52.996;9.124;2023-05-21T12:08:42;13.55;;;8.52;;
25980;SDS011;13772;52.996;9.124;2023-05-21T12:11:07;9.85;;;8.48;;
25980;SDS011;13772;52.996;9.124;2023-05-21T12:13:32;12.30;;;7.75;;
25980;SDS011;13772;52.996;9.124;2023-05-21T12:15:58;11.37;;;7.70;;
25980;SDS011;13772;52.996;9.124;2023-05-21T12:18:23;13.20;;;8.38;;
25980;SDS011;13772;52.996;9.124;2023-05-21T12:20:50;8.23;;;7.43;;
25980;SDS011;13772;52.996;9.124;2023-05-21T12:23:25;10.73;;;7.90;;
25980;SDS011;13772;52.996;9.124;2023-05-21T12:25:50;10.80;;;7.63;;
25980;SDS011;13772;52.996;9.124;2023-05-21T12:28:16;12.40;;;8.13;;
25980;SDS011;13772;52.996;9.124;2023-05-21T12:30:41;11.57;;;8.23;;
25980;SDS011;13772;52.996;9.124;2023-05-21T12:33:06;5.43;;;3.97;;
25980;SDS011;13772;52.996;9.124;2023-05-21T12:35:31;8.43;;;5.85;;
25980;SDS011;13772;52.996;9.124;2023-05-21T12:37:59;9.63;;;6.97;;
25980;SDS011;13772;52.996;9.124;2023-05-21T12:40:33;8.77;;;7.88;;
25980;SDS011;13772;52.996;9.124;2023-05-21T12:42:58;11.07;;;8.07;;
25980;SDS011;13772;52.996;9.124;2023-05-21T12:45:24;10.57;;;8.43;;
25980;SDS011;13772;52.996;9.124;2023-05-21T12:47:49;10.55;;;8.27;;
25980;SDS011;13772;52.996;9.124;2023-05-21T12:50:19;9.15;;;8.05;;
25980;SDS011;13772;52.996;9.124;2023-05-21T12:52:45;11.10;;;8.60;;
25980;SDS011;13772;52.996;9.124;2023-05-21T12:55:11;9.35;;;8.38;;
25980;SDS011;13772;52.996;9.124;2023-05-21T12:57:37;11.38;;;8.73;;
25980;SDS011;13772;52.996;9.124;2023-05-21T13:00:03;12.55;;;8.70;;
25980;SDS011;13772;52.996;9.124;2023-05-21T13:02:31;12.20;;;8.57;;
25980;SDS011;13772;52.996;9.124;2023-05-21T13:04:59;11.70;;;8.40;;
25980;SDS011;13772;52.996;9.124;2023-05-21T13:07:25;13.45;;;8.65;;
25980;SDS011;13772;52.996;9.124;2023-05-21T13:09:51;12.55;;;8.38;;
25980;SDS011;13772;52.996;9.124;2023-05-21T13:12:17;10.07;;;8.55;;
25980;SDS011;13772;52.996;9.124;2023-05-21T13:14:43;9.52;;;8.40;;
25980;SDS011;13772;52.996;9.124;2023-05-21T13:17:08;10.40;;;8.90;;
25980;SDS011;13772;52.996;9.124;2023-05-21T13:19:33;10.63;;;8.70;;
25980;SDS011;13772;52.996;9.124;2023-05-21T13:21:58;9.57;;;8.07;;
25980;SDS011;13772;52.996;9.124;2023-05-21T13:24:23;11.23;;;8.60;;
25980;SDS011;13772;52.996;9.124;2023-05-21T13:26:49;9.73;;;8.60;;
25980;SDS011;13772;52.996;9.124;2023-05-21T13:29:14;10.50;;;7.93;;
25980;SDS011;13772;52.996;9.124;2023-05-21T13:31:40;10.50;;;8.18;;
25980;SDS011;13772;52.996;9.124;2023-05-21T13:34:05;9.80;;;8.05;;
25980;SDS011;13772;52.996;9.124;2023-05-21T13:36:31;10.25;;;8.60;;
25980;SDS011;13772;52.996;9.124;2023-05-21T13:38:57;10.13;;;8.18;;
25980;SDS011;13772;52.996;9.124;2023-05-21T13:41:22;10.48;;;8.18;;
25980;SDS011;13772;52.996;9.124;2023-05-21T13:43:47;10.97;;;8.90;;
25980;SDS011;13772;52.996;9.124;2023-05-21T13:46:12;11.93;;;8.20;;
25980;SDS011;13772;52.996;9.124;2023-05-21T13:48:38;11.37;;;7.70;;
25980;SDS011;13772;52.996;9.124;2023-05-21T13:51:04;9.55;;;8.55;;
25980;SDS011;13772;52.996;9.124;2023-05-21T13:53:29;9.85;;;7.95;;
25980;SDS011;13772;52.996;9.124;2023-05-21T13:55:54;10.13;;;8.10;;
25980;SDS011;13772;52.996;9.124;2023-05-21T13:58:19;9.25;;;8.25;;
25980;SDS011;13772;52.996;9.124;2023-05-21T14:00:45;9.57;;;8.20;;
25980;SDS011;13772;52.996;9.124;2023-05-21T14:03:10;10.45;;;8.30;;
25980;SDS011;13772;52.996;9.124;2023-05-21T14:05:35;12.15;;;8.32;;
25980;SDS011;13772;52.996;9.124;2023-05-21T14:08:01;9.85;;;8.25;;
25980;SDS011;13772;52.996;9.124;2023-05-21T14:10:26;10.90;;;8.13;;
25980;SDS011;13772;52.996;9.124;2023-05-21T14:12:51;10.13;;;7.37;;
25980;SDS011;13772;52.996;9.124;2023-05-21T14:15:16;8.88;;;7.85;;
25980;SDS011;13772;52.996;9.124;2023-05-21T14:17:42;10.18;;;8.45;;
25980;SDS011;13772;52.996;9.124;2023-05-21T14:20:07;14.90;;;8.15;;
25980;SDS011;13772;52.996;9.124;2023-05-21T14:22:32;10.73;;;8.15;;
25980;SDS011;13772;52.996;9.124;2023-05-21T14:24:58;11.43;;;8.25;;
25980;SDS011;13772;52.996;9.124;2023-05-21T14:27:23;8.87;;;7.80;;
25980;SDS011;13772;52.996;9.124;2023-05-21T14:29:48;10.88;;;8.70;;
25980;SDS011;13772;52.996;9.124;2023-05-21T14:32:13;9.93;;;8.30;;
25980;SDS011;13772;52.996;9.124;2023-05-21T14:34:38;9.93;;;7.80;;
25980;SDS011;13772;52.996;9.124;2023-05-21T14:37:04;11.57;;;7.97;;
25980;SDS011;13772;52.996;9.124;2023-05-21T14:39:29;9.68;;;7.82;;
25980;SDS011;13772;52.996;9.124;2023-05-21T14:41:55;10.57;;;7.75;;
25980;SDS011;13772;52.996;9.124;2023-05-21T14:44:20;9.55;;;7.57;;
25980;SDS011;13772;52.996;9.124;2023-05-21T14:46:45;9.40;;;7.97;;
25980;SDS011;13772;52.996;9.124;2023-05-21T14:49:10;9.32;;;8.32;;
25980;SDS011;13772;52.996;9.124;2023-05-21T14:51:36;9.98;;;8.82;;
25980;SDS011;13772;52.996;9.124;2023-05-21T14:54:01;10.53;;;8.57;;
25980;SDS011;13772;52.996;9.124;2023-05-21T14:56:26;10.93;;;9.05;;
25980;SDS011;13772;52.996;9.124;2023-05-21T14:58:52;8.88;;;7.97;;
25980;SDS011;13772;52.996;9.124;2023-05-21T15:01:17;11.57;;;8.65;;
25980;SDS011;13772;52.996;9.124;2023-05-21T15:03:42;9.93;;;8.45;;
25980;SDS011;13772;52.996;9.124;2023-05-21T15:06:07;11.52;;;8.85;;
25980;SDS011;13772;52.996;9.124;2023-05-21T15:08:33;11.32;;;9.25;;
25980;SDS011;13772;52.996;9.124;2023-05-21T15:10:58;11.82;;;9.02;;
25980;SDS011;13772;52.996;9.124;2023-05-21T15:13:23;10.27;;;9.15;;
25980;SDS011;13772;52.996;9.124;2023-05-21T15:15:49;11.07;;;8.80;;
25980;SDS011;13772;52.996;9.124;2023-05-21T15:18:14;10.82;;;8.70;;
25980;SDS011;13772;52.996;9.124;2023-05-21T15:20:39;11.02;;;9.07;;
25980;SDS011;13772;52.996;9.124;2023-05-21T15:23:05;12.20;;;8.57;;
25980;SDS011;13772;52.996;9.124;2023-05-21T15:25:31;14.75;;;9.27;;
25980;SDS011;13772;52.996;9.124;2023-05-21T15:27:57;10.20;;;8.43;;
25980;SDS011;13772;52.996;9.124;2023-05-21T15:30:22;14.27;;;9.17;;
25980;SDS011;13772;52.996;9.124;2023-05-21T15:32:47;9.57;;;8.57;;
25980;SDS011;13772;52.996;9.124;2023-05-21T15:35:12;9.97;;;8.50;;
25980;SDS011;13772;52.996;9.124;2023-05-21T15:37:38;11.70;;;8.65;;
25980;SDS011;13772;52.996;9.124;2023-05-21T15:40:03;9.70;;;8.07;;
25980;SDS011;13772;52.996;9.124;2023-05-21T15:42:28;11.10;;;8.73;;
25980;SDS011;13772;52.996;9.124;2023-05-21T15:44:55;12.23;;;9.38;;
25980;SDS011;13772;52.996;9.124;2023-05-21T15:47:20;10.52;;;9.05;;
25980;SDS011;13772;52.996;9.124;2023-05-21T15:49:45;11.33;;;8.37;;
25980;SDS011;13772;52.996;9.124;2023-05-21T15:52:11;11.87;;;9.67;;
25980;SDS011;13772;52.996;9.124;2023-05-21T15:54:36;13.13;;;8.77;;
25980;SDS011;13772;52.996;9.124;2023-05-21T15:57:01;10.65;;;8.82;;
25980;SDS011;13772;52.996;9.124;2023-05-21T15:59:26;10.38;;;8.98;;
25980;SDS011;13772;52.996;9.124;2023-05-21T16:01:52;9.88;;;8.80;;
25980;SDS011;13772;52.996;9.124;2023-05-21T16:04:17;10.38;;;9.27;;
25980;SDS011;13772;52.996;9.124;2023-05-21T16:06:45;14.82;;;10.18;;
25980;SDS011;13772;52.996;9.124;2023-05-21T16:09:13;10.40;;;8.83;;
25980;SDS011;13772;52.996;9.124;2023-05-21T16:11:39;13.18;;;9.88;;
25980;SDS011;13772;52.996;9.124;2023-05-21T16:14:04;12.95;;;10.00;;
25980;SDS011;13772;52.996;9.124;2023-05-21T16:16:29;14.18;;;9.38;;
25980;SDS011;13772;52.996;9.124;2023-05-21T16:18:54;11.02;;;9.32;;
25980;SDS011;13772;52.996;9.124;2023-05-21T16:21:20;11.30;;;8.83;;
25980;SDS011;13772;52.996;9.124;2023-05-21T16:23:45;11.15;;;9.27;;
25980;SDS011;13772;52.996;9.124;2023-05-21T16:26:10;10.03;;;8.97;;
25980;SDS011;13772;52.996;9.124;2023-05-21T16:28:36;11.73;;;9.82;;
25980;SDS011;13772;52.996;9.124;2023-05-21T16:31:01;13.25;;;9.32;;
25980;SDS011;13772;52.996;9.124;2023-05-21T16:33:26;12.23;;;9.13;;
25980;SDS011;13772;52.996;9.124;2023-05-21T16:35:51;12.27;;;9.95;;
25980;SDS011;13772;52.996;9.124;2023-05-21T16:38:18;12.88;;;9.30;;
25980;SDS011;13772;52.996;9.124;2023-05-21T16:40:43;10.38;;;8.93;;
25980;SDS011;13772;52.996;9.124;2023-05-21T16:43:11;11.13;;;8.98;;
25980;SDS011;13772;52.996;9.124;2023-05-21T16:45:37;11.38;;;10.07;;
25980;SDS011;13772;52.996;9.124;2023-05-21T16:48:03;12.02;;;9.23;;
25980;SDS011;13772;52.996;9.124;2023-05-21T16:50:28;12.98;;;9.40;;
25980;SDS011;13772;52.996;9.124;2023-05-21T16:52:54;15.20;;;9.90;;
25980;SDS011;13772;52.996;9.124;2023-05-21T16:55:19;14.30;;;9.80;;
25980;SDS011;13772;52.996;9.124;2023-05-21T16:57:44;10.97;;;9.77;;
25980;SDS011;13772;52.996;9.124;2023-05-21T17:00:10;10.90;;;9.70;;
25980;SDS011;13772;52.996;9.124;2023-05-21T17:02:35;10.93;;;9.25;;
25980;SDS011;13772;52.996;9.124;2023-05-21T17:05:00;10.85;;;9.75;;
25980;SDS011;13772;52.996;9.124;2023-05-21T17:07:25;11.73;;;9.90;;
25980;SDS011;13772;52.996;9.124;2023-05-21T17:09:51;13.48;;;10.70;;
25980;SDS011;13772;52.996;9.124;2023-05-21T17:12:16;11.32;;;10.13;;
25980;SDS011;13772;52.996;9.124;2023-05-21T17:14:41;12.20;;;9.55;;
25980;SDS011;13772;52.996;9.124;2023-05-21T17:17:06;11.35;;;9.48;;
25980;SDS011;13772;52.996;9.124;2023-05-21T17:19:32;12.13;;;9.98;;
25980;SDS011;13772;52.996;9.124;2023-05-21T17:21:57;13.75;;;10.43;;
25980;SDS011;13772;52.996;9.124;2023-05-21T17:24:22;11.95;;;9.13;;
25980;SDS011;13772;52.996;9.124;2023-05-21T17:26:47;12.00;;;10.13;;
25980;SDS011;13772;52.996;9.124;2023-05-21T17:29:13;11.80;;;10.27;;
25980;SDS011;13772;52.996;9.124;2023-05-21T17:31:38;10.82;;;9.52;;
25980;SDS011;13772;52.996;9.124;2023-05-21T17:34:03;14.93;;;9.68;;
25980;SDS011;13772;52.996;9.124;2023-05-21T17:36:28;11.63;;;9.48;;
25980;SDS011;13772;52.996;9.124;2023-05-21T17:38:54;10.25;;;9.07;;
25980;SDS011;13772;52.996;9.124;2023-05-21T17:41:19;11.18;;;9.65;;
25980;SDS011;13772;52.996;9.124;2023-05-21T17:43:45;11.38;;;9.55;;
25980;SDS011;13772;52.996;9.124;2023-05-21T17:46:10;11.20;;;9.05;;
25980;SDS011;13772;52.996;9.124;2023-05-21T17:48:40;13.27;;;9.52;;
25980;SDS011;13772;52.996;9.124;2023-05-21T17:51:05;10.98;;;9.10;;
25980;SDS011;13772;52.996;9.124;2023-05-21T17:53:30;12.57;;;9.17;;
25980;SDS011;13772;52.996;9.124;2023-05-21T17:55:56;9.17;;;8.10;;
25980;SDS011;13772;52.996;9.124;2023-05-21T17:58:21;10.93;;;8.52;;
25980;SDS011;13772;52.996;9.124;2023-05-21T18:00:46;9.70;;;8.27;;
25980;SDS011;13772;52.996;9.124;2023-05-21T18:03:11;9.90;;;7.73;;
25980;SDS011;13772;52.996;9.124;2023-05-21T18:05:36;10.85;;;7.95;;
25980;SDS011;13772;52.996;9.124;2023-05-21T18:08:02;11.02;;;8.70;;
25980;SDS011;13772;52.996;9.124;2023-05-21T18:10:28;10.27;;;8.10;;
25980;SDS011;13772;52.996;9.124;2023-05-21T18:12:53;10.45;;;8.07;;
25980;SDS011;13772;52.996;9.124;2023-05-21T18:15:19;9.60;;;7.80;;
25980;SDS011;13772;52.996;9.124;2023-05-21T18:17:45;11.55;;;8.25;;
25980;SDS011;13772;52.996;9.124;2023-05-21T18:20:11;12.05;;;7.80;;
25980;SDS011;13772;52.996;9.124;2023-05-21T18:22:36;11.63;;;7.70;;
25980;SDS011;13772;52.996;9.124;2023-05-21T18:25:02;13.30;;;8.03;;
25980;SDS011;13772;52.996;9.124;2023-05-21T18:27:27;10.20;;;7.85;;
25980;SDS011;13772;52.996;9.124;2023-05-21T18:29:53;8.85;;;7.75;;
25980;SDS011;13772;52.996;9.124;2023-05-21T18:32:18;9.75;;;7.65;;
25980;SDS011;13772;52.996;9.124;2023-05-21T18:34:43;9.20;;;7.72;;
25980;SDS011;13772;52.996;9.124;2023-05-21T18:37:09;11.35;;;7.75;;
25980;SDS011;13772;52.996;9.124;2023-05-21T18:39:34;11.13;;;7.68;;
25980;SDS011;13772;52.996;9.124;2023-05-21T18:41:59;11.27;;;9.00;;
25980;SDS011;13772;52.996;9.124;2023-05-21T18:44:24;12.82;;;8.10;;
25980;SDS011;13772;52.996;9.124;2023-05-21T18:46:50;11.45;;;8.50;;
25980;SDS011;13772;52.996;9.124;2023-05-21T18:49:15;10.70;;;7.78;;
25980;SDS011;13772;52.996;9.124;2023-05-21T18:51:40;17.92;;;8.63;;
25980;SDS011;13772;52.996;9.124;2023-05-21T18:54:06;10.88;;;8.93;;
25980;SDS011;13772;52.996;9.124;2023-05-21T18:56:32;9.43;;;7.90;;
25980;SDS011;13772;52.996;9.124;2023-05-21T18:58:57;10.65;;;8.07;;
25980;SDS011;13772;52.996;9.124;2023-05-21T19:01:22;10.60;;;7.77;;
25980;SDS011;13772;52.996;9.124;2023-05-21T19:03:48;11.68;;;8.00;;
25980;SDS011;13772;52.996;9.124;2023-05-21T19:06:13;10.77;;;8.50;;
25980;SDS011;13772;52.996;9.124;2023-05-21T19:08:38;10.45;;;8.27;;
25980;SDS011;13772;52.996;9.124;2023-05-21T19:11:05;10.02;;;8.68;;
25980;SDS011;13772;52.996;9.124;2023-05-21T19:13:30;13.85;;;8.57;;
25980;SDS011;13772;52.996;9.124;2023-05-21T19:15:55;10.93;;;8.13;;
25980;SDS011;13772;52.996;9.124;2023-05-21T19:18:22;9.13;;;8.20;;
25980;SDS011;13772;52.996;9.124;2023-05-21T19:20:53;11.57;;;8.43;;
25980;SDS011;13772;52.996;9.124;2023-05-21T19:23:19;10.20;;;8.90;;
25980;SDS011;13772;52.996;9.124;2023-05-21T19:25:44;10.60;;;8.35;;
25980;SDS011;13772;52.996;9.124;2023-05-21T19:28:09;10.63;;;7.90;;
25980;SDS011;13772;52.996;9.124;2023-05-21T19:30:35;9.82;;;8.55;;
25980;SDS011;13772;52.996;9.124;2023-05-21T19:33:00;11.70;;;8.30;;
25980;SDS011;13772;52.996;9.124;2023-05-21T19:35:25;11.38;;;7.93;;
25980;SDS011;13772;52.996;9.124;2023-05-21T19:37:50;11.43;;;8.53;;
25980;SDS011;13772;52.996;9.124;2023-05-21T19:40:18;10.15;;;8.63;;
25980;SDS011;13772;52.996;9.124;2023-05-21T19:42:46;14.50;;;8.10;;
25980;SDS011;13772;52.996;9.124;2023-05-21T19:45:11;9.30;;;8.38;;
25980;SDS011;13772;52.996;9.124;2023-05-21T19:47:37;11.85;;;8.30;;
25980;SDS011;13772;52.996;9.124;2023-05-21T19:50:05;9.85;;;8.25;;
25980;SDS011;13772;52.996;9.124;2023-05-21T19:52:30;10.77;;;8.30;;
25980;SDS011;13772;52.996;9.124;2023-05-21T19:54:55;10.57;;;7.95;;
25980;SDS011;13772;52.996;9.124;2023-05-21T19:57:28;9.70;;;8.45;;
25980;SDS011;13772;52.996;9.124;2023-05-21T19:59:53;9.48;;;7.88;;
25980;SDS011;13772;52.996;9.124;2023-05-21T20:02:18;10.68;;;8.05;;
25980;SDS011;13772;52.996;9.124;2023-05-21T20:04:43;9.55;;;8.32;;
25980;SDS011;13772;52.996;9.124;2023-05-21T20:07:09;8.65;;;7.60;;
25980;SDS011;13772;52.996;9.124;2023-05-21T20:09:34;10.55;;;8.20;;
25980;SDS011;13772;52.996;9.124;2023-05-21T20:11:59;10.43;;;7.80;;
25980;SDS011;13772;52.996;9.124;2023-05-21T20:14:24;9.98;;;8.32;;
25980;SDS011;13772;52.996;9.124;2023-05-21T20:16:49;9.75;;;8.15;;
25980;SDS011;13772;52.996;9.124;2023-05-21T20:19:17;10.45;;;7.78;;
25980;SDS011;13772;52.996;9.124;2023-05-21T20:21:44;11.80;;;8.20;;
25980;SDS011;13772;52.996;9.124;2023-05-21T20:24:09;12.57;;;7.30;;
25980;SDS011;13772;52.996;9.124;2023-05-21T20:26:35;11.15;;;7.88;;
25980;SDS011;13772;52.996;9.124;2023-05-21T20:29:00;11.73;;;8.38;;
25980;SDS011;13772;52.996;9.124;2023-05-21T20:31:25;10.65;;;8.52;;
25980;SDS011;13772;52.996;9.124;2023-05-21T20:33:51;10.88;;;8.85;;
25980;SDS011;13772;52.996;9.124;2023-05-21T20:36:17;12.30;;;8.38;;
25980;SDS011;13772;52.996;9.124;2023-05-21T20:38:45;9.48;;;8.40;;
25980;SDS011;13772;52.996;9.124;2023-05-21T20:41:11;11.35;;;8.52;;
25980;SDS011;13772;52.996;9.124;2023-05-21T20:43:36;10.38;;;9.27;;
25980;SDS011;13772;52.996;9.124;2023-05-21T20:46:02;12.98;;;9.05;;
25980;SDS011;13772;52.996;9.124;2023-05-21T20:48:29;10.25;;;8.13;;
25980;SDS011;13772;52.996;9.124;2023-05-21T20:50:56;14.13;;;9.73;;
25980;SDS011;13772;52.996;9.124;2023-05-21T20:53:24;12.83;;;9.80;;
25980;SDS011;13772;52.996;9.124;2023-05-21T20:55:50;12.32;;;9.30;;
25980;SDS011;13772;52.996;9.124;2023-05-21T20:58:18;12.95;;;9.07;;
25980;SDS011;13772;52.996;9.124;2023-05-21T21:00:43;12.80;;;9.18;;
25980;SDS011;13772;52.996;9.124;2023-05-21T21:03:10;10.90;;;9.13;;
25980;SDS011;13772;52.996;9.124;2023-05-21T21:05:35;11.25;;;9.15;;
25980;SDS011;13772;52.996;9.124;2023-05-21T21:08:01;12.15;;;9.48;;
25980;SDS011;13772;52.996;9.124;2023-05-21T21:10:27;13.82;;;8.93;;
25980;SDS011;13772;52.996;9.124;2023-05-21T21:12:52;11.75;;;9.63;;
25980;SDS011;13772;52.996;9.124;2023-05-21T21:15:17;10.73;;;9.32;;
25980;SDS011;13772;52.996;9.124;2023-05-21T21:17:43;10.65;;;9.45;;
25980;SDS011;13772;52.996;9.124;2023-05-21T21:20:08;11.30;;;9.20;;
25980;SDS011;13772;52.996;9.124;2023-05-21T21:22:34;12.07;;;9.25;;
25980;SDS011;13772;52.996;9.124;2023-05-21T21:24:59;10.57;;;9.48;;
25980;SDS011;13772;52.996;9.124;2023-05-21T21:27:25;11.23;;;8.95;;
25980;SDS011;13772;52.996;9.124;2023-05-21T21:29:50;13.68;;;9.20;;
25980;SDS011;13772;52.996;9.124;2023-05-21T21:32:15;11.27;;;9.20;;
25980;SDS011;13772;52.996;9.124;2023-05-21T21:34:40;13.15;;;8.52;;
25980;SDS011;13772;52.996;9.124;2023-05-21T21:37:05;10.25;;;8.70;;
25980;SDS011;13772;52.996;9.124;2023-05-21T21:39:31;9.35;;;7.72;;
25980;SDS011;13772;52.996;9.124;2023-05-21T21:41:56;10.57;;;8.57;;
25980;SDS011;13772;52.996;9.124;2023-05-21T21:44:21;10.10;;;7.82;;
25980;SDS011;13772;52.996;9.124;2023-05-21T21:46:46;10.25;;;8.77;;
25980;SDS011;13772;52.996;9.124;2023-05-21T21:49:12;10.80;;;8.40;;
25980;SDS011;13772;52.996;9.124;2023-05-21T21:51:38;10.60;;;8.07;;
25980;SDS011;13772;52.996;9.124;2023-05-21T21:54:03;9.45;;;8.43;;
25980;SDS011;13772;52.996;9.124;2023-05-21T21:56:28;14.18;;;8.90;;
25980;SDS011;13772;52.996;9.124;2023-05-21T21:58:54;12.23;;;8.73;;
25980;SDS011;13772;52.996;9.124;2023-05-21T22:01:19;13.63;;;8.57;;